Observations for WELLINGTON INTL, New Zealand (NZWN)

NZWN 140700Z AUTO 16006KT 120V200 9999 OVC080/// 12/09 Q0991
NZWN 140700Z AUTO 16006KT 120V200 9999 OVC080/// 12/09 Q0991 NOSIG
NZWN 140330Z AUTO 23010KT 9999 FEW050/// 13/07 Q0991 NOSIG  
NZWN 140300Z AUTO 22010KT 9999 BKN065/// 13/08 Q0991 NOSIG  
NZWN 140230Z AUTO 22007KT 9999 FEW060/// 13/08 Q0992 NOSIG  
NZWN 140200Z AUTO 23006KT 9999 SCT050/// SCT060/// 13/08 Q0992 NOSIG
NZWN 140130Z AUTO 23005KT 9999 BKN044/// 13/08 Q0992 NOSIG  
NZWN 140100Z AUTO 20005KT 9999 OVC050/// 13/09 Q0993 NOSIG  
NZWN 140030Z AUTO 17008KT 9999 BKN044/// BKN065/// 12/09 Q0993 NOSIG
NZWN 140000Z AUTO 18005KT 9999 FEW048/// BKN060/// BKN095/// 13/09 Q0994 NOSIG  
NZWN 132330Z AUTO 18003KT 9999 -RA BKN050/// OVC065/// 12/09 Q0995 NOSIG
NZWN 132300Z AUTO 02002KT 9999 BKN046/// 12/09 Q0995 NOSIG  
NZWN 132230Z AUTO 05003KT 9999 -RA FEW046/// BKN055/// 11/08 Q0995 NOSIG
NZWN 132200Z AUTO 04003KT 9999 BKN060/// 11/08 Q0996 NOSIG  
NZWN 132130Z AUTO 35003KT 9999 -RA SCT050/// BKN060/// OVC070/// 11/08 Q0996 NOSIG  
NZWN 132100Z AUTO 07003KT 9999 -RA BKN060/// OVC070/// 11/08 Q0996 NOSIG
NZWN 132030Z AUTO 07004KT 020V120 9999 -DZ OVC060/// 11/08 Q0996 NOSIG  
NZWN 132000Z AUTO 04003KT 9999 OVC060/// 10/08 Q0996 NOSIG  
NZWN 131930Z AUTO 04002KT 9999 FEW050/// SCT080/// OVC095/// 10/08 Q0996 NOSIG  
NZWN 131900Z AUTO 02002KT 9999 -RA OVC070/// 10/08 Q0997 NOSIG  
NZWN 131830Z AUTO 35004KT 9999 -RA SCT048/// BKN055/// OVC075/// 10/08 Q0997 NOSIG  
NZWN 131800Z AUTO 01004KT 9999 -RA BKN043/// OVC050/// 10/08 Q0997 NOSIG
NZWN 131730Z AUTO 05005KT 9999 -RA FEW038/// SCT048/// OVC060/// 10/08 Q0997 REDZ NOSIG 
NZWN 131700Z AUTO 04004KT 9999 DZ BKN065/// 10/08 Q0998 NOSIG   
NZWN 131630Z AUTO 02002KT 9999 BKN046/// OVC060/// 10/07 Q0998 NOSIG
NZWN 131600Z AUTO 32001KT 9999 BKN050/// OVC065/// 10/07 Q0998 NOSIG
NZWN 131530Z AUTO 01001KT 9999 BKN055/// 10/07 Q0998 NOSIG  
NZWN 131500Z AUTO 05003KT 9999 FEW048/// BKN090/// 10/07 Q0999 NOSIG
NZWN 131430Z AUTO 04002KT 9999 FEW049/// BKN070/// 10/07 Q1000 NOSIG
NZWN 131400Z AUTO 01002KT 9999 OVC060/// 10/06 Q1000 NOSIG  
NZWN 131330Z AUTO 05003KT 9999 BKN043/// BKN050/// 10/06 Q1000 NOSIG
NZWN 131300Z AUTO 08002KT 9999 OVC043/// 10/05 Q1001 NOSIG  
NZWN 131230Z AUTO 13002KT 9999 SCT042/// 10/05 Q1001
NZWN 131200Z AUTO 02002KT 9999 FEW050/// 09/05 Q1001 NOSIG  
NZWN 131130Z AUTO 36005KT 9999 FEW046/// BKN060/// 09/05 Q1002 NOSIG
NZWN 131100Z AUTO 01004KT 9999 FEW048/// 10/06 Q1002 NOSIG  
NZWN 131030Z AUTO 01005KT 9999 BKN045/// 10/06 Q1002 NOSIG  
NZWN 131000Z AUTO 01006KT 9999 FEW043/// 09/05 Q1003 NOSIG  
NZWN 130930Z AUTO 01005KT 9999 FEW044/// 10/04 Q1003 NOSIG  
NZWN 130900Z AUTO 01009KT 9999 NCD 11/05 Q1003 NOSIG
NZWN 130830Z AUTO 02009KT 9999 NCD 11/05 Q1004 NOSIG
NZWN 130800Z AUTO 02008KT 9999 NCD 10/05 Q1004 NOSIG